Morro Bay, CA

6:43 PM PST on February 13, 2016 (GMT -0800)
Del Mar - North Morro Bay | | Change Station
CLOSE
Current Station
Personal Weather Station
Location: Morro Bay, CA
Elevation: 105 ft
Nearby Weather Stations
Active Advisory: High Surf Advisory

Elev 105 ft 35.39 °N, 120.85 °W | Updated 7 minutes ago

Clear
Clear
54.3 °F
Feels Like 54.3 °F
N
2.7
Wind Variable Wind from SW

Today
High -- | Low -- °F
--% Chance of Precip.
Yesterday
High -- | Low -- °F
Precip. -- in
Pressure 30.13 in
Visibility 10.0 miles
Clouds Clear
Dew Point 49 °F
Humidity 83%
Rainfall 0.00 in
Snow Depth Not available.
6:52 AM 5:43 PM
Waxing Crescent, 36% visible
METAR KSBP 140156Z 33010KT 10SM CLR 21/11 A3013 RMK AO2 SLP201 T02060111
Pressure 30.13 in
Visibility 10.0 miles
Clouds Clear
Dew Point 49 °F
Humidity 83%
Rainfall 0.00 in
Snow Depth Not available.
6:52 AM 5:43 PM
Waxing Crescent, 36% visible
METAR KSBP 140156Z 33010KT 10SM CLR 21/11 A3013 RMK AO2 SLP201 T02060111

10-Day Weather Forecast

Almanac

Astronomy

Feb. 13, 2016 Rise Set
Actual Time
Civil Twilight
Nautical Twilight
Astronomical Twilight
Moon
Length of Visible Light
Length of Day
Tomorrow will be .
, % of the Moon is Illuminated

Today's Extremes

State Highs State Lows

Community

WunderPhotos

Upload Photos

1,892,731 photos uploaded!

WunderBlog® & News

Nearby

Air Quality

  Air Quality AQ Index Pollutant
Not available.

Snow Depth

Station Depth Elevation

Earthquake Activity

City Distance Mag. Time & Date
Minimum magnitude displayed is 2.5.

Coastal Water Temperatures

Place Temperature

Stations

Nearby Weather Stations

Station Location Temp. Windchill Dew Point Humidity Wind Precip. Elev Updated Type
                   

Watches & Warnings

High Surf Advisory
Issued: 12:04 PM PST Feb. 13, 2016 – National Weather Service

... High surf advisory now in effect until 6 PM PST Sunday...

* surf... surf of 10 to 15 feet today will subside to 8 to 12 feet
on Sunday.

* Impacts... large waves and strong rip currents will increase the
risk of ocean drowning. Sneaker waves can suddenly wash people
off of beaches and rock jetties. Minor beach erosion is
possible.

* Locations... surf will be highest on west and northwest facing
beaches.

Precautionary/preparedness actions...

A high surf advisory means that high surf and rip currents will
make swimming and rock jetties dangerous.

Remember... if caught in a rip current... swim parallel to shore
until you are free of the powerful current. Always swim near a
lifeguard.